Time;durP1;ratioP1;P1;durP2;ratioP2;P2;SDS_P1;SDS_P2;PMS_P1;PMS_P2;Temp;Humidity;BMP_temperature;BMP_pressure;BME280_temperature;BME280_humidity;BME280_pressure;Samples;Min_cycle;Max_cycle;Signal;HPM_P1;HPM_P2
2023/01/22 00:00:08;;;;;;;24.50;23.40;;;21.20;45.80;;;;;;5052698;28;20476;-51
2023/01/22 00:02:37;;;;;;;24.30;23.30;;;21.10;45.80;;;;;;5051673;28;20451;-55
2023/01/22 00:05:04;;;;;;;25.47;24.30;;;21.20;45.80;;;;;;5052986;28;21016;-52
2023/01/22 00:07:31;;;;;;;25.10;23.90;;;21.10;45.80;;;;;;5052891;28;20448;-52
2023/01/22 00:09:58;;;;;;;24.43;23.33;;;21.10;45.70;;;;;;5052887;28;20447;-53
2023/01/22 00:12:25;;;;;;;25.67;24.57;;;21.10;45.70;;;;;;5052839;28;20445;-52
2023/01/22 00:14:52;;;;;;;24.30;23.30;;;21.20;45.80;;;;;;5052420;28;20539;-54
2023/01/22 00:17:19;;;;;;;25.27;24.20;;;21.10;46.30;;;;;;5052362;28;20449;-53
2023/01/22 00:19:47;;;;;;;24.03;23.03;;;21.10;45.80;;;;;;5052468;28;21020;-55
2023/01/22 00:22:14;;;;;;;24.67;23.57;;;21.10;45.70;;;;;;5052792;28;20532;-56
2023/01/22 00:24:41;;;;;;;25.53;24.43;;;21.10;45.70;;;;;;5052686;28;20887;-52
2023/01/22 00:27:07;;;;;;;25.87;24.67;;;21.10;45.80;;;;;;5052366;28;20547;-52
2023/01/22 00:29:34;;;;;;;25.20;24.10;;;21.10;45.80;;;;;;5052483;28;20466;-53
2023/01/22 00:32:01;;;;;;;23.70;22.70;;;21.10;45.70;;;;;;5052464;28;20479;-55
2023/01/22 00:34:28;;;;;;;24.27;23.20;;;21.10;45.70;;;;;;5052525;28;20535;-53
2023/01/22 00:36:56;;;;;;;25.40;24.00;;;21.10;45.70;;;;;;5052336;28;20470;-54
2023/01/22 00:39:23;;;;;;;24.20;23.20;;;21.10;45.80;;;;;;5051867;28;20992;-53
2023/01/22 00:41:50;;;;;;;24.20;23.20;;;21.10;45.70;;;;;;5052115;28;20956;-52
2023/01/22 00:44:16;;;;;;;24.10;23.10;;;21.10;45.70;;;;;;5052291;28;20450;-54
2023/01/22 00:46:43;;;;;;;24.50;23.50;;;21.10;45.70;;;;;;5052551;28;20559;-58
2023/01/22 00:49:11;;;;;;;25.07;23.97;;;21.10;45.70;;;;;;5052013;28;20447;-60
2023/01/22 00:51:38;;;;;;;24.43;23.33;;;21.10;45.70;;;;;;5051677;28;20451;-55
2023/01/22 00:54:06;;;;;;;24.30;23.20;;;21.10;45.70;;;;;;5052109;28;20456;-57
2023/01/22 00:56:33;;;;;;;24.23;23.20;;;21.10;45.60;;;;;;5052061;28;20543;-60
2023/01/22 00:59:00;;;;;;;25.10;24.00;;;21.10;45.60;;;;;;5051791;28;21026;-53
2023/01/22 01:01:27;;;;;;;24.80;23.80;;;21.10;45.60;;;;;;5051919;28;20448;-57
2023/01/22 01:03:54;;;;;;;24.43;23.33;;;21.10;45.60;;;;;;5052025;28;20876;-56
2023/01/22 01:06:21;;;;;;;24.93;23.93;;;21.10;45.60;;;;;;5051850;28;20555;-59
2023/01/22 01:08:49;;;;;;;24.10;23.10;;;21.10;45.70;;;;;;5051504;28;20448;-56
2023/01/22 01:11:20;;;;;;;23.70;22.70;;;21.10;45.70;;;;;;5052009;28;20448;-54
2023/01/22 01:13:48;;;;;;;24.90;23.80;;;21.10;45.70;;;;;;5051781;28;20530;-58
2023/01/22 01:16:17;;;;;;;24.90;23.70;;;21.10;45.60;;;;;;5051672;28;20466;-59
2023/01/22 01:18:44;;;;;;;23.30;22.40;;;21.10;45.60;;;;;;5051667;28;20451;-57
2023/01/22 01:21:12;;;;;;;24.30;23.27;;;21.10;45.60;;;;;;5051357;28;20476;-58
2023/01/22 01:23:39;;;;;;;24.60;23.50;;;21.10;45.60;;;;;;5051718;28;20444;-55
2023/01/22 01:26:07;;;;;;;24.37;23.17;;;21.10;45.70;;;;;;5051663;28;20468;-56
2023/01/22 01:28:37;;;;;;;26.10;24.70;;;21.10;45.70;;;;;;5051722;28;20971;-57
2023/01/22 01:31:04;;;;;;;24.00;23.00;;;21.00;45.60;;;;;;5050916;28;20444;-56
2023/01/22 01:33:31;;;;;;;23.97;22.87;;;21.10;45.70;;;;;;5051419;28;21001;-57
2023/01/22 01:35:59;;;;;;;24.80;23.80;;;21.00;45.60;;;;;;5051406;28;20468;-54
2023/01/22 01:38:26;;;;;;;24.70;23.63;;;21.10;45.60;;;;;;5051489;28;20463;-59
2023/01/22 01:40:53;;;;;;;23.93;22.93;;;21.10;45.60;;;;;;5050645;28;20571;-58
2023/01/22 01:43:20;;;;;;;25.10;24.00;;;21.10;45.60;;;;;;5051573;28;20787;-55
2023/01/22 01:45:48;;;;;;;23.73;22.80;;;21.10;45.60;;;;;;5051075;28;20572;-58
2023/01/22 01:48:25;;;;;;;25.73;24.63;;;21.00;45.50;;;;;;5051379;28;20570;-56
2023/01/22 01:50:57;;;;;;;24.13;23.13;;;21.00;45.50;;;;;;5051185;28;20801;-57
2023/01/22 01:53:25;;;;;;;24.70;23.70;;;21.10;45.60;;;;;;5051385;28;20457;-57
2023/01/22 01:55:53;;;;;;;24.67;23.67;;;21.00;45.50;;;;;;5051535;28;20464;-56
2023/01/22 01:58:21;;;;;;;26.10;25.00;;;21.00;45.50;;;;;;5051145;28;20448;-56
2023/01/22 02:00:53;;;;;;;24.70;23.50;;;21.00;45.40;;;;;;5051032;28;20826;-55
2023/01/22 02:03:22;;;;;;;23.73;22.73;;;21.00;45.50;;;;;;5051387;28;20448;-54
2023/01/22 02:05:49;;;;;;;23.90;22.90;;;21.00;45.40;;;;;;5051094;28;20472;-57
2023/01/22 02:08:17;;;;;;;24.20;23.20;;;21.00;45.40;;;;;;5051304;28;20531;-53
2023/01/22 02:10:44;;;;;;;25.33;24.23;;;21.00;45.40;;;;;;5051278;28;20440;-53
2023/01/22 02:13:15;;;;;;;23.53;22.50;;;21.00;45.40;;;;;;5051170;28;20820;-55
2023/01/22 02:15:42;;;;;;;22.50;21.60;;;21.10;45.50;;;;;;5051062;28;20468;-55
2023/01/22 02:18:11;;;;;;;24.30;23.20;;;21.10;45.50;;;;;;5051098;28;20935;-55
2023/01/22 02:20:40;;;;;;;24.30;23.30;;;21.00;45.50;;;;;;5050879;28;20575;-59
2023/01/22 02:23:07;;;;;;;24.70;23.70;;;21.00;45.40;;;;;;5050295;28;20444;-55
2023/01/22 02:25:34;;;;;;;25.60;24.50;;;21.00;45.40;;;;;;5051350;28;20466;-57
2023/01/22 02:28:01;;;;;;;24.17;23.17;;;21.00;45.40;;;;;;5051008;28;20460;-54
2023/01/22 02:30:28;;;;;;;23.30;22.30;;;21.10;45.40;;;;;;5051059;28;20536;-56
2023/01/22 02:32:54;;;;;;;24.00;22.93;;;21.00;45.40;;;;;;5050866;28;20444;-56
2023/01/22 02:35:21;;;;;;;24.23;23.23;;;21.00;45.40;;;;;;5051007;28;20468;-57
2023/01/22 02:37:49;;;;;;;22.90;22.00;;;21.00;45.40;;;;;;5051055;28;20444;-59
2023/01/22 02:40:16;;;;;;;24.00;22.90;;;21.00;45.40;;;;;;5050985;28;20483;-56
2023/01/22 02:42:43;;;;;;;25.10;24.10;;;21.00;45.30;;;;;;5054056;28;20522;-58
2023/01/22 02:45:11;;;;;;;23.20;22.17;;;21.00;45.40;;;;;;5054388;28;20472;-56
2023/01/22 02:47:38;;;;;;;24.83;23.73;;;21.10;45.40;;;;;;5054275;28;20545;-56
2023/01/22 02:50:06;;;;;;;24.33;23.30;;;21.00;45.30;;;;;;5054325;28;20468;-59
2023/01/22 02:52:33;;;;;;;23.43;22.30;;;21.00;45.30;;;;;;5054408;28;20456;-58
2023/01/22 02:55:02;;;;;;;23.13;22.23;;;21.00;45.30;;;;;;5054371;28;20448;-56
2023/01/22 02:57:30;;;;;;;24.10;23.03;;;21.00;45.40;;;;;;5054029;28;20476;-59
2023/01/22 02:59:57;;;;;;;23.23;22.30;;;21.00;45.40;;;;;;5053990;28;20483;-57
2023/01/22 03:02:24;;;;;;;22.87;21.87;;;21.00;45.40;;;;;;5054193;28;20856;-58
2023/01/22 03:04:51;;;;;;;23.50;22.50;;;21.00;45.40;;;;;;5053795;28;20447;-54
2023/01/22 03:07:18;;;;;;;23.60;22.60;;;21.00;45.40;;;;;;5054005;28;20454;-56
2023/01/22 03:09:45;;;;;;;24.43;23.33;;;21.00;45.30;;;;;;5053938;28;20455;-56
2023/01/22 03:12:13;;;;;;;25.40;24.30;;;21.00;45.30;;;;;;5054147;28;20471;-54
2023/01/22 03:22:54;;;;;;;23.50;22.57;;;21.00;45.30;;;;;;5034181;28;20471;-58
2023/01/22 03:25:21;;;;;;;24.07;23.13;;;21.00;45.30;;;;;;5033753;28;20467;-57
2023/01/22 03:30:45;;;;;;;22.80;21.90;;;21.00;45.30;;;;;;5011685;28;20422;-55
2023/01/22 03:33:12;;;;;;;24.30;23.30;;;21.00;45.30;;;;;;5023710;28;20800;-57
2023/01/22 03:35:38;;;;;;;22.63;21.73;;;21.00;45.30;;;;;;5033687;28;20471;-57
2023/01/22 03:38:05;;;;;;;22.93;22.00;;;21.00;45.30;;;;;;5033649;28;21013;-55
2023/01/22 03:40:32;;;;;;;23.93;22.83;;;21.00;45.40;;;;;;5051190;28;20563;-57
2023/01/22 03:43:00;;;;;;;22.50;21.60;;;21.00;45.30;;;;;;5053464;28;20539;-56
2023/01/22 03:45:27;;;;;;;23.77;22.70;;;21.00;45.80;;;;;;5053396;28;20480;-55
2023/01/22 03:47:54;;;;;;;22.67;21.77;;;21.00;45.30;;;;;;5052883;28;20895;-57
2023/01/22 03:50:21;;;;;;;23.33;22.43;;;21.00;45.30;;;;;;5053107;28;20929;-57
2023/01/22 03:52:48;;;;;;;22.40;21.50;;;21.00;45.30;;;;;;5052542;28;20539;-57
2023/01/22 03:55:15;;;;;;;22.33;21.43;;;21.00;45.20;;;;;;5053132;28;20468;-54
2023/01/22 03:57:42;;;;;;;21.83;20.93;;;21.00;45.20;;;;;;5052765;28;20497;-56
2023/01/22 04:00:12;;;;;;;22.30;21.40;;;21.00;45.30;;;;;;5053029;28;20479;-54
2023/01/22 04:02:39;;;;;;;22.83;21.87;;;21.00;45.30;;;;;;5053092;28;20868;-54
2023/01/22 04:05:07;;;;;;;24.30;23.20;;;21.00;45.30;;;;;;5052833;28;20452;-54
2023/01/22 04:07:34;;;;;;;23.10;22.20;;;21.00;45.30;;;;;;5053279;28;20451;-54
2023/01/22 04:10:01;;;;;;;23.00;22.07;;;21.00;45.30;;;;;;5052541;28;20471;-57
2023/01/22 04:12:27;;;;;;;23.80;22.70;;;21.00;45.20;;;;;;5052885;28;20453;-58
2023/01/22 04:14:54;;;;;;;24.00;22.90;;;21.00;45.20;;;;;;5052766;28;20523;-55
2023/01/22 04:17:22;;;;;;;23.80;22.80;;;21.00;45.30;;;;;;5052802;28;20556;-57
2023/01/22 04:19:49;;;;;;;22.87;21.87;;;21.00;45.30;;;;;;5052764;28;20527;-55
2023/01/22 04:22:16;;;;;;;23.40;22.40;;;21.00;45.30;;;;;;5052470;28;20523;-57
2023/01/22 04:24:43;;;;;;;24.23;23.23;;;21.10;45.40;;;;;;5052865;28;20448;-58
2023/01/22 04:27:09;;;;;;;22.20;21.30;;;21.10;45.40;;;;;;5052457;28;20550;-57
2023/01/22 04:29:36;;;;;;;24.10;23.10;;;21.10;45.40;;;;;;5052346;28;20440;-57
2023/01/22 04:32:03;;;;;;;24.23;23.23;;;21.10;45.50;;;;;;5052587;28;20531;-55
2023/01/22 04:34:31;;;;;;;22.67;21.77;;;21.10;45.60;;;;;;5051959;28;20802;-55
2023/01/22 04:36:58;;;;;;;22.80;21.90;;;21.10;45.50;;;;;;5052414;28;20549;-56
2023/01/22 04:39:25;;;;;;;23.23;22.23;;;21.10;45.50;;;;;;5052299;28;20501;-55
2023/01/22 04:41:52;;;;;;;22.60;21.70;;;21.10;45.50;;;;;;5052123;28;20484;-55
2023/01/22 04:44:18;;;;;;;22.80;21.80;;;21.10;45.50;;;;;;5052419;28;20938;-58
2023/01/22 04:46:45;;;;;;;23.33;22.43;;;21.10;45.50;;;;;;5051843;28;20472;-56
2023/01/22 04:49:12;;;;;;;23.03;22.13;;;21.20;45.50;;;;;;5052085;28;20458;-54
2023/01/22 04:51:40;;;;;;;22.37;21.37;;;21.10;45.50;;;;;;5052062;28;21001;-59
2023/01/22 04:54:07;;;;;;;22.70;21.80;;;21.20;45.50;;;;;;5052119;28;20444;-57
2023/01/22 04:56:34;;;;;;;23.50;22.50;;;21.20;45.50;;;;;;5051645;28;20893;-57
2023/01/22 04:59:00;;;;;;;22.93;22.03;;;21.10;45.50;;;;;;5049434;28;20452;-58
2023/01/22 05:01:27;;;;;;;23.97;22.87;;;21.10;45.40;;;;;;5051858;28;21019;-55
2023/01/22 05:03:54;;;;;;;22.30;21.40;;;21.10;45.40;;;;;;5051981;28;20535;-59
2023/01/22 05:06:21;;;;;;;22.43;21.60;;;21.10;45.30;;;;;;5051652;28;20543;-58
2023/01/22 05:08:49;;;;;;;23.00;22.10;;;21.10;45.40;;;;;;5051664;28;20930;-58
2023/01/22 05:11:16;;;;;;;23.47;22.57;;;21.10;45.40;;;;;;5051810;28;20531;-57
2023/01/22 05:13:42;;;;;;;23.50;22.50;;;21.10;45.40;;;;;;5051845;28;21012;-57
2023/01/22 05:16:09;;;;;;;23.70;22.80;;;21.10;45.30;;;;;;5051483;28;20462;-55
2023/01/22 05:18:36;;;;;;;24.20;23.20;;;21.10;45.30;;;;;;5051620;28;20543;-58
2023/01/22 05:21:03;;;;;;;24.37;23.37;;;21.10;45.40;;;;;;5051462;28;20908;-54
2023/01/22 05:23:30;;;;;;;24.00;23.00;;;21.10;45.40;;;;;;5051691;28;20448;-56
2023/01/22 05:25:58;;;;;;;23.30;22.40;;;21.00;45.30;;;;;;5051567;28;20468;-55
2023/01/22 05:28:25;;;;;;;23.43;22.53;;;21.10;45.30;;;;;;5051471;28;20541;-58
2023/01/22 05:30:51;;;;;;;22.73;21.83;;;21.10;45.30;;;;;;5051131;28;20539;-58
2023/01/22 05:33:18;;;;;;;23.70;22.70;;;21.10;45.30;;;;;;5051594;28;20527;-55
2023/01/22 05:35:45;;;;;;;23.53;22.63;;;21.10;45.40;;;;;;5051500;28;20567;-53
2023/01/22 05:38:12;;;;;;;23.80;22.80;;;21.10;45.30;;;;;;5051872;28;20527;-59
2023/01/22 05:40:39;;;;;;;24.70;23.70;;;21.10;45.40;;;;;;5051027;28;20483;-58
2023/01/22 05:43:07;;;;;;;23.87;22.93;;;21.10;45.40;;;;;;5051486;28;21035;-54
2023/01/22 05:45:33;;;;;;;24.03;23.13;;;21.10;45.40;;;;;;5051254;28;20486;-55
2023/01/22 05:48:00;;;;;;;25.30;24.30;;;21.10;45.40;;;;;;5051218;28;21044;-54
2023/01/22 05:50:27;;;;;;;23.30;22.40;;;21.10;45.40;;;;;;5051057;28;20546;-57
2023/01/22 05:52:55;;;;;;;23.00;22.10;;;21.10;45.30;;;;;;5051379;28;20539;-56
2023/01/22 05:55:22;;;;;;;23.40;22.43;;;21.20;45.40;;;;;;5051517;28;20475;-57
2023/01/22 05:57:50;;;;;;;25.80;24.80;;;21.10;45.30;;;;;;5051347;28;21004;-53
2023/01/22 06:00:19;;;;;;;24.30;23.30;;;21.00;45.30;;;;;;5051050;28;20449;-57
2023/01/22 06:02:46;;;;;;;23.70;22.80;;;20.90;45.40;;;;;;5051013;28;20558;-56
2023/01/22 06:05:13;;;;;;;24.40;23.40;;;20.90;45.50;;;;;;5051534;28;20870;-55
2023/01/22 06:07:40;;;;;;;24.40;23.40;;;20.80;45.60;;;;;;5051618;28;20939;-55
2023/01/22 06:10:08;;;;;;;23.63;22.63;;;20.80;45.60;;;;;;5051067;28;20578;-58
2023/01/22 06:12:35;;;;;;;22.97;22.07;;;20.80;45.70;;;;;;5051398;28;20858;-58
2023/01/22 06:15:02;;;;;;;23.63;22.63;;;20.80;45.80;;;;;;5051414;28;20879;-57
2023/01/22 06:17:31;;;;;;;24.80;23.80;;;20.70;45.80;;;;;;5055163;28;20937;-57
2023/01/22 06:19:58;;;;;;;24.73;23.63;;;20.70;45.80;;;;;;5054948;28;20486;-57
2023/01/22 06:22:25;;;;;;;23.33;22.40;;;20.60;45.90;;;;;;5055001;28;20512;-55
2023/01/22 06:24:51;;;;;;;23.43;22.43;;;20.70;46.00;;;;;;5055084;28;20498;-58
2023/01/22 06:27:19;;;;;;;24.77;23.77;;;20.60;45.90;;;;;;5055379;28;20818;-55
2023/01/22 06:29:46;;;;;;;24.30;23.30;;;20.60;45.90;;;;;;5054972;28;20489;-54
2023/01/22 06:32:13;;;;;;;24.13;23.17;;;20.60;46.00;;;;;;5055081;28;20890;-58
2023/01/22 06:34:41;;;;;;;23.37;22.37;;;20.60;46.00;;;;;;5054848;28;20531;-58
2023/01/22 06:37:08;;;;;;;24.57;23.57;;;20.60;46.10;;;;;;5055000;28;20467;-56
2023/01/22 06:39:35;;;;;;;23.73;22.80;;;20.60;46.10;;;;;;5054564;28;20443;-58
2023/01/22 06:42:02;;;;;;;25.37;24.27;;;20.60;46.10;;;;;;5054765;28;20574;-57
2023/01/22 06:44:29;;;;;;;24.97;23.97;;;20.60;46.10;;;;;;5054817;28;20478;-55
2023/01/22 06:46:56;;;;;;;23.83;22.93;;;20.60;46.10;;;;;;5054587;28;20542;-54
2023/01/22 06:49:23;;;;;;;24.43;23.43;;;20.50;46.10;;;;;;5054352;28;20475;-57
2023/01/22 06:51:52;;;;;;;23.93;22.93;;;20.50;46.10;;;;;;5054365;28;20847;-52
2023/01/22 06:54:19;;;;;;;24.27;23.27;;;20.50;46.10;;;;;;5054511;28;20483;-54
2023/01/22 06:56:46;;;;;;;23.77;22.77;;;20.50;46.10;;;;;;5054483;28;20468;-56
2023/01/22 06:59:13;;;;;;;24.50;23.40;;;20.60;46.20;;;;;;5053945;28;20444;-57
2023/01/22 07:01:40;;;;;;;25.20;24.20;;;20.50;46.10;;;;;;5054217;28;20923;-57
2023/01/22 07:04:08;;;;;;;22.83;21.93;;;20.60;46.20;;;;;;5053902;28;20491;-55
2023/01/22 07:06:34;;;;;;;26.70;25.60;;;20.50;46.20;;;;;;5054004;28;20491;-57
2023/01/22 07:09:03;;;;;;;26.80;25.80;;;20.50;46.30;;;;;;5054030;28;20938;-55
2023/01/22 07:11:30;;;;;;;26.60;25.50;;;20.50;46.40;;;;;;5053733;28;20539;-58
2023/01/22 07:13:57;;;;;;;25.90;24.87;;;20.50;46.40;;;;;;5054294;28;20535;-54
2023/01/22 07:16:24;;;;;;;24.33;23.20;;;20.50;46.40;;;;;;5053588;28;20897;-51
2023/01/22 07:18:51;;;;;;;26.00;25.00;;;20.60;46.60;;;;;;5053580;28;20448;-53
2023/01/22 07:21:18;;;;;;;25.60;24.60;;;20.60;46.50;;;;;;5053728;28;20514;-54
2023/01/22 07:23:45;;;;;;;26.30;25.10;;;20.60;46.40;;;;;;5053891;28;20476;-53
2023/01/22 07:26:14;;;;;;;26.63;25.53;;;20.60;46.40;;;;;;5053737;28;20529;-52
2023/01/22 07:28:43;;;;;;;26.07;25.00;;;20.60;46.50;;;;;;5052427;28;20483;-53
2023/01/22 07:31:10;;;;;;;27.30;26.20;;;20.60;46.50;;;;;;5053603;28;20531;-56
2023/01/22 07:33:37;;;;;;;26.00;25.00;;;20.50;46.50;;;;;;5053672;28;20530;-52
2023/01/22 07:36:05;;;;;;;25.57;24.57;;;20.50;46.60;;;;;;5053434;28;20471;-52
2023/01/22 07:38:32;;;;;;;26.00;25.00;;;20.60;46.60;;;;;;5053634;28;20452;-55
2023/01/22 07:41:02;;;;;;;25.63;24.63;;;20.50;46.60;;;;;;5053034;28;20539;-52
2023/01/22 07:43:32;;;;;;;25.20;24.10;;;20.60;46.70;;;;;;5053493;28;20796;-52
2023/01/22 07:46:01;;;;;;;25.40;24.40;;;20.50;46.70;;;;;;5053362;28;20484;-52
2023/01/22 07:48:28;;;;;;;24.70;23.80;;;20.50;46.70;;;;;;5053560;28;20547;-56
2023/01/22 07:50:58;;;;;;;24.87;23.93;;;20.50;46.70;;;;;;5052919;28;20456;-55
2023/01/22 07:53:25;;;;;;;26.40;25.40;;;20.50;47.30;;;;;;5049544;28;20448;-53
2023/01/22 07:55:52;;;;;;;23.93;23.00;;;20.50;46.80;;;;;;5053145;28;20496;-51
2023/01/22 07:58:19;;;;;;;25.23;24.27;;;20.60;46.80;;;;;;5053370;28;20735;-52
2023/01/22 08:00:48;;;;;;;25.87;24.87;;;20.60;46.80;;;;;;5053095;28;20503;-53
2023/01/22 08:03:14;;;;;;;25.63;24.63;;;20.50;46.70;;;;;;5052755;28;20484;-53
2023/01/22 08:05:43;;;;;;;25.50;24.50;;;20.50;46.80;;;;;;5052873;28;20542;-57
2023/01/22 08:08:13;;;;;;;26.47;25.40;;;20.50;46.80;;;;;;5053034;28;20539;-57
2023/01/22 08:10:40;;;;;;;25.73;24.63;;;20.50;46.80;;;;;;5052827;28;20447;-54
2023/01/22 08:13:07;;;;;;;24.70;23.80;;;20.50;46.70;;;;;;5052736;28;20448;-52
2023/01/22 08:15:34;;;;;;;24.80;23.90;;;20.50;46.80;;;;;;5052898;28;21009;-53
2023/01/22 08:18:02;;;;;;;25.30;24.30;;;20.50;46.80;;;;;;5052814;28;21003;-53
2023/01/22 08:20:29;;;;;;;25.47;24.47;;;20.50;46.80;;;;;;5052778;28;20949;-53
2023/01/22 08:22:58;;;;;;;25.53;24.43;;;20.50;46.80;;;;;;5052243;28;20534;-55
2023/01/22 08:25:25;;;;;;;25.40;24.40;;;20.50;46.80;;;;;;5052494;28;20499;-54
2023/01/22 08:27:52;;;;;;;25.77;24.77;;;20.60;46.90;;;;;;5052565;28;20450;-59
2023/01/22 08:30:21;;;;;;;25.07;24.07;;;20.70;47.40;;;;;;5052026;28;20989;-62
2023/01/22 08:32:49;;;;;;;25.13;24.23;;;20.70;47.20;;;;;;5051462;28;20949;-62
2023/01/22 08:35:17;;;;;;;27.50;26.40;;;20.90;47.40;;;;;;5052530;28;20530;-68
2023/01/22 08:37:44;;;;;;;23.00;22.10;;;21.00;47.50;;;;;;5051169;28;20450;-59
2023/01/22 08:40:12;;;;;;;25.10;24.10;;;21.20;48.00;;;;;;5047322;28;20451;-59
2023/01/22 08:42:39;;;;;;;26.30;25.30;;;21.40;47.30;;;;;;5052671;28;20562;-55
2023/01/22 08:45:07;;;;;;;25.30;24.30;;;21.50;47.10;;;;;;5032411;28;20445;-54
2023/01/22 08:47:34;;;;;;;26.30;25.30;;;21.70;47.00;;;;;;5032566;28;20449;-55
2023/01/22 08:50:01;;;;;;;26.30;25.30;;;21.80;47.40;;;;;;5032184;28;20531;-60
2023/01/22 08:52:29;;;;;;;26.23;25.23;;;21.80;46.80;;;;;;5048356;28;20455;-59
2023/01/22 08:54:56;;;;;;;26.43;25.43;;;21.90;46.70;;;;;;5052115;28;20534;-56
2023/01/22 08:57:23;;;;;;;27.80;26.70;;;22.00;46.50;;;;;;5052230;28;20455;-62
2023/01/22 08:59:50;;;;;;;25.73;24.73;;;22.10;46.40;;;;;;5052058;28;20541;-59
2023/01/22 09:02:17;;;;;;;24.77;23.77;;;22.10;46.20;;;;;;5051904;28;20480;-60
2023/01/22 09:04:44;;;;;;;25.07;24.07;;;22.20;46.20;;;;;;5051981;28;20527;-62
2023/01/22 09:07:11;;;;;;;25.20;24.20;;;22.30;46.20;;;;;;5051975;28;20912;-52
2023/01/22 09:09:39;;;;;;;25.53;24.53;;;22.30;46.50;;;;;;5052222;28;20453;-52
2023/01/22 09:12:06;;;;;;;27.23;26.13;;;22.40;45.90;;;;;;5052011;28;20538;-57
2023/01/22 09:14:32;;;;;;;27.90;26.80;;;22.40;45.90;;;;;;5051633;28;20940;-52
2023/01/22 09:16:59;;;;;;;26.97;25.97;;;22.50;45.80;;;;;;5051765;28;20495;-54
2023/01/22 09:19:26;;;;;;;26.37;25.37;;;22.50;45.70;;;;;;5051693;28;20447;-54
2023/01/22 09:21:53;;;;;;;25.83;24.83;;;22.60;45.60;;;;;;5051929;28;20480;-62
2023/01/22 09:24:20;;;;;;;26.70;25.60;;;22.60;45.50;;;;;;5051532;28;20884;-59
2023/01/22 09:26:48;;;;;;;27.57;26.47;;;22.60;45.50;;;;;;5051703;28;20558;-60
2023/01/22 09:29:15;;;;;;;26.00;25.00;;;22.70;45.50;;;;;;5051680;28;20531;-59
2023/01/22 09:31:41;;;;;;;26.77;25.67;;;22.70;45.30;;;;;;5051721;28;20470;-61
2023/01/22 09:34:08;;;;;;;28.53;27.33;;;22.80;45.30;;;;;;5051406;28;20538;-61
2023/01/22 09:36:35;;;;;;;25.60;24.60;;;22.80;45.30;;;;;;5051654;28;21068;-60
2023/01/22 09:39:02;;;;;;;27.70;26.60;;;22.80;45.30;;;;;;5051465;28;20444;-60
2023/01/22 09:41:33;;;;;;;26.53;25.53;;;22.90;45.20;;;;;;5051719;28;20512;-60
2023/01/22 09:44:05;;;;;;;26.00;25.00;;;22.90;45.20;;;;;;5051645;28;20471;-58
2023/01/22 09:46:39;;;;;;;27.73;26.63;;;22.90;45.10;;;;;;5051331;28;20563;-58
2023/01/22 09:49:14;;;;;;;26.10;25.03;;;23.00;45.30;;;;;;5051157;28;20537;-56
2023/01/22 09:51:42;;;;;;;26.50;25.50;;;23.00;45.20;;;;;;5054473;28;20542;-55
2023/01/22 09:54:14;;;;;;;25.73;24.70;;;23.00;45.20;;;;;;5055672;28;20866;-58
2023/01/22 09:56:43;;;;;;;28.23;27.13;;;23.00;45.00;;;;;;5055498;28;20464;-56
2023/01/22 09:59:16;;;;;;;28.10;27.00;;;23.00;44.90;;;;;;5055193;28;20446;-58
2023/01/22 10:01:45;;;;;;;26.83;25.63;;;23.10;44.90;;;;;;5055136;28;20570;-61
2023/01/22 10:04:25;;;;;;;28.57;27.47;;;23.10;44.90;;;;;;5055349;28;20443;-54
2023/01/22 10:06:54;;;;;;;28.57;27.47;;;23.20;44.90;;;;;;5055409;28;20550;-58
2023/01/22 10:09:22;;;;;;;27.00;25.90;;;23.20;44.80;;;;;;5055673;28;20448;-57
2023/01/22 10:11:53;;;;;;;26.27;25.27;;;23.20;44.80;;;;;;5054858;28;20456;-58
2023/01/22 10:14:24;;;;;;;27.37;26.17;;;23.20;44.90;;;;;;5055251;28;20454;-62
2023/01/22 10:16:51;;;;;;;28.17;26.97;;;23.20;44.40;;;;;;5054995;28;20466;-57
2023/01/22 10:19:22;;;;;;;26.10;25.10;;;23.00;43.80;;;;;;5054865;28;20548;-59
2023/01/22 10:21:53;;;;;;;25.90;24.90;;;22.80;43.70;;;;;;5054776;28;20463;-56
2023/01/22 10:24:20;;;;;;;25.93;24.93;;;22.80;43.90;;;;;;5054897;28;20454;-56
2023/01/22 10:26:49;;;;;;;27.70;26.60;;;22.70;43.80;;;;;;5054389;28;20464;-63
2023/01/22 10:29:24;;;;;;;26.93;25.63;;;22.70;44.20;;;;;;5054855;28;20542;-54
2023/01/22 10:31:54;;;;;;;27.00;25.87;;;22.70;44.50;;;;;;5054621;28;20535;-59
2023/01/22 10:34:29;;;;;;;26.57;25.47;;;22.70;44.30;;;;;;5054683;28;20945;-57
2023/01/22 10:36:59;;;;;;;26.07;24.97;;;22.70;44.60;;;;;;5054711;28;20529;-64
2023/01/22 10:39:27;;;;;;;27.20;26.10;;;22.70;44.10;;;;;;5054788;28;20448;-59
2023/01/22 10:42:01;;;;;;;27.57;26.50;;;22.70;44.20;;;;;;5054597;28;20886;-57
2023/01/22 10:44:29;;;;;;;26.23;25.23;;;22.70;44.20;;;;;;5054561;28;20444;-55
2023/01/22 10:47:08;;;;;;;26.80;25.70;;;22.60;44.10;;;;;;5054387;28;20980;-58
2023/01/22 10:49:34;;;;;;;28.20;27.00;;;22.50;44.10;;;;;;5054496;28;20794;-56
2023/01/22 10:52:15;;;;;;;26.80;25.70;;;22.50;44.10;;;;;;5054630;28;20448;-58
2023/01/22 10:54:44;;;;;;;27.50;26.40;;;22.50;44.20;;;;;;5054259;28;20448;-59
2023/01/22 10:57:19;;;;;;;27.70;26.60;;;22.60;44.30;;;;;;5054324;28;20472;-56
2023/01/22 10:59:51;;;;;;;26.80;25.70;;;22.50;44.30;;;;;;5054623;28;21117;-58
2023/01/22 11:02:20;;;;;;;26.30;25.20;;;22.50;44.10;;;;;;5054047;28;20495;-58
2023/01/22 11:04:47;;;;;;;26.70;25.60;;;22.50;44.20;;;;;;5054575;28;20448;-58
2023/01/22 11:07:17;;;;;;;27.90;26.70;;;22.50;44.10;;;;;;5054084;28;21044;-59
2023/01/22 11:09:49;;;;;;;28.07;26.87;;;22.50;44.30;;;;;;5054058;28;20816;-55
2023/01/22 11:12:20;;;;;;;26.87;25.77;;;22.60;44.50;;;;;;5054102;28;20543;-59
2023/01/22 11:14:55;;;;;;;26.70;25.60;;;22.60;44.60;;;;;;5054202;28;20452;-57
2023/01/22 11:17:29;;;;;;;25.57;24.50;;;22.60;44.30;;;;;;5054071;28;20456;-62
2023/01/22 11:20:00;;;;;;;26.67;25.50;;;22.60;44.30;;;;;;5034246;28;20452;-58
2023/01/22 11:22:32;;;;;;;26.67;25.60;;;22.60;44.30;;;;;;5034322;28;20994;-60
2023/01/22 11:24:59;;;;;;;27.33;26.23;;;22.50;44.20;;;;;;5034523;28;20456;-54
2023/01/22 11:28:04;;;;;;;28.37;27.23;;;22.50;44.30;;;;;;5033943;28;20453;-55
2023/01/22 11:30:56;;;;;;;23.63;22.73;;;22.70;44.90;;;;;;4963263;28;20808;-53
2023/01/22 11:33:41;;;;;;;26.80;25.80;;;22.70;44.60;;;;;;4971994;28;20200;-60
2023/01/22 11:36:15;;;;;;;25.93;24.93;;;22.60;44.20;;;;;;5037594;28;20470;-56
2023/01/22 11:38:48;;;;;;;28.17;26.77;;;22.60;44.30;;;;;;5058098;28;20446;-57
2023/01/22 11:41:41;;;;;;;27.27;25.97;;;22.60;44.90;;;;;;5054617;28;20444;-62
2023/01/22 11:44:51;;;;;;;27.20;26.10;;;22.60;44.80;;;;;;5052430;28;20472;-59
2023/01/22 11:47:43;;;;;;;26.10;25.10;;;22.60;44.50;;;;;;4953437;28;20496;-62
2023/01/22 11:50:23;;;;;;;28.10;26.90;;;22.50;44.40;;;;;;4953085;28;20465;-62
2023/01/22 11:52:58;;;;;;;27.30;26.20;;;22.50;44.30;;;;;;5009160;28;20445;-62
2023/01/22 11:55:53;;;;;;;26.53;25.43;;;22.50;44.50;;;;;;5049210;28;20595;-59
2023/01/22 11:58:31;;;;;;;26.80;25.70;;;22.40;44.40;;;;;;5053588;28;20519;-62
2023/01/22 12:01:14;;;;;;;28.27;26.77;;;22.40;44.50;;;;;;5053163;28;20447;-59
2023/01/22 12:04:11;;;;;;;26.60;25.60;;;22.40;44.60;;;;;;5053594;28;20486;-64
2023/01/22 12:07:01;;;;;;;26.80;25.70;;;22.30;44.50;;;;;;5033356;28;20474;-60
2023/01/22 12:09:39;;;;;;;27.40;26.30;;;22.30;44.60;;;;;;5032860;28;20463;-60
2023/01/22 12:12:16;;;;;;;26.20;25.10;;;22.30;44.60;;;;;;5051932;28;20452;-59
2023/01/22 12:14:54;;;;;;;26.47;25.30;;;22.40;44.70;;;;;;5052377;28;21032;-60
2023/01/22 12:17:43;;;;;;;28.30;27.20;;;22.30;44.50;;;;;;5053257;28;20448;-58
2023/01/22 12:20:51;;;;;;;27.00;25.90;;;22.30;44.40;;;;;;5053120;28;20960;-51
2023/01/22 12:23:24;;;;;;;25.50;24.40;;;22.30;44.60;;;;;;5003735;28;20485;-55
2023/01/22 12:25:57;;;;;;;29.57;27.97;;;22.40;44.60;;;;;;5034116;28;20814;-58
2023/01/22 12:28:29;;;;;;;27.50;26.20;;;22.30;44.70;;;;;;5032692;28;20457;-62
2023/01/22 12:31:03;;;;;;;30.80;29.30;;;22.40;44.70;;;;;;5035706;28;20817;-55
2023/01/22 12:33:33;;;;;;;29.47;28.07;;;22.40;44.70;;;;;;5052753;28;20964;-60
2023/01/22 12:36:02;;;;;;;33.70;32.00;;;22.50;45.10;;;;;;5052846;28;20471;-59
2023/01/22 12:38:45;;;;;;;35.43;32.73;;;22.50;44.80;;;;;;5052966;28;20448;-60
2023/01/22 12:41:31;;;;;;;37.67;34.60;;;22.40;44.90;;;;;;5052399;28;20455;-62
2023/01/22 12:44:01;;;;;;;37.70;34.47;;;22.40;45.20;;;;;;5052419;28;20492;-60
2023/01/22 12:46:36;;;;;;;35.83;32.97;;;22.40;45.20;;;;;;5092388;22;20496;-66
2023/01/22 12:49:06;;;;;;;31.67;28.95;;;22.30;45.00;;;;;;5043090;28;20443;-67